Time;durP1;ratioP1;P1;durP2;ratioP2;P2;SDS_P1;SDS_P2;PMS_P1;PMS_P2;Temp;Humidity;BMP_temperature;BMP_pressure;BME280_temperature;BME280_humidity;BME280_pressure;Samples;Min_cycle;Max_cycle;Signal;HPM_P1;HPM_P2
2023/07/23 00:00:47;;;;;;;3.50;2.90;;;;;;;16.69;84.22;99169.17;107728;1250;60506;-40
2023/07/23 00:03:16;;;;;;;3.00;2.70;;;;;;;16.73;84.30;99169.30;107753;1250;74002;-40
2023/07/23 00:05:47;;;;;;;6.30;3.60;;;;;;;16.73;84.20;99167.98;107678;1250;67786;-40
2023/07/23 00:08:14;;;;;;;3.00;2.70;;;;;;;16.71;83.99;99164.70;107609;1250;72650;-40
2023/07/23 00:10:56;;;;;;;3.00;2.70;;;;;;;16.71;84.07;99164.63;107654;1257;61683;-39
2023/07/23 00:13:25;;;;;;;6.20;3.10;;;;;;;16.73;83.90;99164.92;107805;1253;59762;-40
2023/07/23 00:15:52;;;;;;;3.60;3.30;;;;;;;16.68;84.07;99169.42;107766;1250;74076;-39
2023/07/23 00:18:23;;;;;;;4.00;2.90;;;;;;;16.61;84.30;99168.08;107658;1251;67557;-39
2023/07/23 00:20:51;;;;;;;4.60;2.90;;;;;;;16.60;84.46;99167.08;107584;1252;72706;-39
2023/07/23 00:23:18;;;;;;;3.00;2.70;;;;;;;16.64;84.69;99162.27;107675;1252;61088;-39
2023/07/23 00:25:46;;;;;;;2.90;2.60;;;;;;;16.73;84.72;99166.95;107670;1250;60300;-39
2023/07/23 00:28:13;;;;;;;3.20;2.90;;;;;;;16.77;84.45;99164.49;107612;1253;73874;-39
2023/07/23 00:30:41;;;;;;;3.00;2.70;;;;;;;16.76;84.47;99166.69;107588;1250;67559;-39
2023/07/23 00:33:08;;;;;;;4.40;2.40;;;;;;;16.81;84.41;99169.02;107630;1253;72694;-39
2023/07/23 00:35:36;;;;;;;3.40;2.50;;;;;;;16.87;84.11;99169.02;107633;1253;61647;-39
2023/07/23 00:38:04;;;;;;;3.50;2.50;;;;;;;16.88;83.74;99166.96;107694;1250;60396;-39
2023/07/23 00:40:31;;;;;;;3.20;2.70;;;;;;;16.87;83.85;99169.41;107729;1250;73842;-38
2023/07/23 00:42:59;;;;;;;2.60;2.40;;;;;;;16.86;83.90;99165.83;107528;1251;67928;-39
2023/07/23 00:45:26;;;;;;;3.40;2.50;;;;;;;16.91;83.99;99173.59;107569;1250;71412;-39
2023/07/23 00:47:54;;;;;;;3.40;2.20;;;;;;;16.98;83.61;99174.08;107749;1250;60361;-39
2023/07/23 00:50:21;;;;;;;2.60;2.20;;;;;;;17.00;83.45;99174.77;107560;1251;60058;-39
2023/07/23 00:52:49;;;;;;;2.80;2.40;;;;;;;16.98;83.35;99176.42;107720;1250;72644;-39
2023/07/23 00:55:16;;;;;;;2.30;2.10;;;;;;;16.98;83.39;99175.42;107560;1251;67947;-39
2023/07/23 00:57:44;;;;;;;2.70;2.20;;;;;;;16.94;83.22;99177.86;107757;1253;71424;-39
2023/07/23 01:00:12;;;;;;;3.50;2.70;;;;;;;16.97;83.48;99181.91;107501;1250;61684;-39
2023/07/23 01:02:40;;;;;;;3.20;2.20;;;;;;;17.01;83.53;99181.64;107849;1250;60457;-36
2023/07/23 01:05:08;;;;;;;3.80;2.70;;;;;;;17.02;83.46;99184.05;107772;1250;73858;-37
2023/07/23 01:07:35;;;;;;;3.50;2.60;;;;;;;17.01;83.59;99182.18;107751;1250;66426;-38
2023/07/23 01:10:04;;;;;;;2.50;2.30;;;;;;;17.04;83.57;99179.41;107519;1254;71440;-38
2023/07/23 01:12:31;;;;;;;3.90;2.60;;;;;;;17.09;83.33;99173.19;107750;1255;60512;-38
2023/07/23 01:14:59;;;;;;;2.80;2.50;;;;;;;17.14;83.37;99178.14;107573;1250;60052;-38
2023/07/23 01:17:26;;;;;;;2.60;2.40;;;;;;;17.15;83.12;99177.58;107563;1251;73862;-38
2023/07/23 01:20:05;;;;;;;3.50;2.30;;;;;;;17.14;83.28;99181.10;107583;1250;66944;-37
2023/07/23 01:22:36;;;;;;;3.10;2.50;;;;;;;17.17;83.12;99186.17;107532;1251;72668;-38
2023/07/23 01:25:04;;;;;;;3.00;2.50;;;;;;;17.20;82.81;99183.95;107647;1253;60499;-38
2023/07/23 01:27:32;;;;;;;2.90;2.30;;;;;;;17.18;82.76;99183.65;107637;1251;60339;-38
2023/07/23 01:30:00;;;;;;;2.90;2.40;;;;;;;17.15;82.87;99184.62;107609;1251;72570;-38
2023/07/23 01:32:28;;;;;;;4.00;2.30;;;;;;;17.12;83.03;99185.60;107603;1251;67735;-38
2023/07/23 01:34:55;;;;;;;2.70;2.50;;;;;;;17.14;82.99;99184.17;107600;1257;71413;-38
2023/07/23 01:37:23;;;;;;;3.70;2.20;;;;;;;17.20;83.13;99182.38;107325;1253;61714;-38
2023/07/23 01:39:51;;;;;;;3.50;2.40;;;;;;;17.28;83.19;99183.23;107491;1253;60236;-38
2023/07/23 01:42:18;;;;;;;3.00;2.80;;;;;;;17.33;83.04;99182.79;107620;1254;73916;-38
2023/07/23 01:44:46;;;;;;;2.90;2.60;;;;;;;17.33;82.75;99183.64;107628;1252;68136;-38
2023/07/23 01:47:13;;;;;;;3.70;2.90;;;;;;;17.32;82.49;99179.75;107612;1253;72935;-38
2023/07/23 01:49:41;;;;;;;4.70;2.90;;;;;;;17.32;82.33;99182.02;107507;1254;61696;-38
2023/07/23 01:52:08;;;;;;;4.70;3.40;;;;;;;17.32;82.52;99187.42;107582;1256;60310;-38
2023/07/23 01:54:36;;;;;;;5.10;4.00;;;;;;;17.30;82.56;99186.02;107476;1252;74363;-38
2023/07/23 01:57:04;;;;;;;3.70;3.40;;;;;;;17.28;82.72;99179.80;107655;1251;66648;-38
2023/07/23 01:59:32;;;;;;;3.60;3.20;;;;;;;17.30;82.69;99180.16;107624;1252;72698;-38
2023/07/23 02:02:00;;;;;;;4.40;3.50;;;;;;;17.35;82.39;99181.75;107517;1253;60452;-38
2023/07/23 02:04:27;;;;;;;4.60;3.50;;;;;;;17.37;82.09;99179.75;107478;1251;60296;-38
2023/07/23 02:06:55;;;;;;;5.30;3.80;;;;;;;17.37;81.87;99181.02;107623;1252;73859;-38
2023/07/23 02:09:23;;;;;;;4.20;3.00;;;;;;;17.36;81.77;99178.14;107594;1253;66419;-38
2023/07/23 02:11:50;;;;;;;3.50;3.20;;;;;;;17.39;81.61;99180.61;107663;1251;71430;-39
2023/07/23 02:14:18;;;;;;;3.50;3.20;;;;;;;17.42;81.33;99180.27;107628;1253;60326;-38
2023/07/23 02:16:46;;;;;;;3.90;3.50;;;;;;;17.45;81.23;99179.60;107564;1253;60416;-38
2023/07/23 02:19:13;;;;;;;4.30;3.50;;;;;;;17.48;80.92;99178.23;107640;1252;73869;-38
2023/07/23 02:21:41;;;;;;;3.80;3.40;;;;;;;17.48;80.66;99178.23;107520;1252;66756;-38
2023/07/23 02:24:08;;;;;;;3.70;3.20;;;;;;;17.49;80.13;99178.05;107590;1254;72712;-38
2023/07/23 02:26:36;;;;;;;3.60;3.30;;;;;;;17.53;79.78;99177.08;107620;1253;60531;-38
2023/07/23 02:29:04;;;;;;;4.80;4.00;;;;;;;17.54;79.81;99178.23;107539;1257;60375;-38
2023/07/23 02:31:32;;;;;;;4.10;3.70;;;;;;;17.55;79.91;99179.95;107728;1250;73946;-38
2023/07/23 02:34:00;;;;;;;3.90;3.30;;;;;;;17.55;79.75;99184.26;107582;1250;66592;-38
2023/07/23 02:36:28;;;;;;;4.30;3.60;;;;;;;17.54;79.47;99185.20;107625;1252;71468;-38
2023/07/23 02:38:55;;;;;;;4.30;3.80;;;;;;;17.54;79.55;99187.94;107700;1253;60409;-38
2023/07/23 02:41:23;;;;;;;4.70;4.00;;;;;;;17.54;79.84;99185.74;107758;1250;60451;-38
2023/07/23 02:43:51;;;;;;;5.00;4.30;;;;;;;17.55;79.91;99190.20;107426;1251;73958;-38
2023/07/23 02:46:18;;;;;;;5.60;4.60;;;;;;;17.55;80.03;99193.96;107658;1253;66805;-38
2023/07/23 02:48:46;;;;;;;6.80;5.00;;;;;;;17.54;79.90;99197.65;107749;1251;73144;-38
2023/07/23 02:51:14;;;;;;;6.50;5.40;;;;;;;17.52;79.98;99201.85;107444;1253;60492;-38
2023/07/23 02:53:42;;;;;;;8.10;6.10;;;;;;;17.48;80.24;99204.06;107762;1253;60274;-38
2023/07/23 02:56:09;;;;;;;10.00;6.30;;;;;;;17.44;80.66;99208.41;107459;1251;73860;-38
2023/07/23 02:58:37;;;;;;;7.50;6.40;;;;;;;17.45;80.91;99209.91;107690;1250;67574;-38
2023/07/23 03:01:05;;;;;;;10.30;6.30;;;;;;;17.50;80.96;99213.91;107558;1253;72740;-38
2023/07/23 03:03:32;;;;;;;6.90;6.20;;;;;;;17.54;80.83;99215.42;107590;1253;61227;-38
2023/07/23 03:06:00;;;;;;;7.50;6.70;;;;;;;17.57;80.83;99219.95;107665;1253;60089;-38
2023/07/23 03:08:28;;;;;;;11.00;7.40;;;;;;;17.60;81.06;99223.23;107620;1251;72957;-38
2023/07/23 03:10:55;;;;;;;9.60;7.90;;;;;;;17.60;80.86;99226.98;107647;1250;67613;-38
2023/07/23 03:13:23;;;;;;;8.80;7.10;;;;;;;17.59;80.69;99225.17;107408;1253;72768;-38
2023/07/23 03:15:51;;;;;;;9.80;8.00;;;;;;;17.64;80.88;99228.19;107672;1251;60472;-38
2023/07/23 03:18:18;;;;;;;11.70;9.00;;;;;;;17.67;80.87;99231.29;107708;1250;60534;-38
2023/07/23 03:20:46;;;;;;;11.20;9.10;;;;;;;17.70;80.88;99233.68;107729;1251;75114;-38
2023/07/23 03:23:15;;;;;;;10.00;8.90;;;;;;;17.70;80.85;99236.90;107761;1250;67910;-38
2023/07/23 03:25:43;;;;;;;9.70;8.20;;;;;;;17.72;80.53;99241.02;107702;1252;71465;-38
2023/07/23 03:28:10;;;;;;;9.50;8.60;;;;;;;17.75;80.56;99238.31;107634;1253;61680;-38
2023/07/23 03:30:38;;;;;;;10.80;8.50;;;;;;;17.78;80.45;99240.63;107529;1251;60032;-38
2023/07/23 03:33:05;;;;;;;11.10;9.80;;;;;;;17.83;80.65;99246.61;107616;1252;73851;-38
2023/07/23 03:35:33;;;;;;;10.90;9.10;;;;;;;17.87;80.62;99248.59;107668;1250;67498;-38
2023/07/23 03:38:02;;;;;;;9.30;8.40;;;;;;;17.91;80.31;99248.47;107657;1256;71457;-38
2023/07/23 03:40:29;;;;;;;8.40;6.80;;;;;;;17.97;80.05;99250.13;107685;1252;60530;-38
2023/07/23 03:42:57;;;;;;;7.90;7.10;;;;;;;17.96;79.88;99251.77;107656;1252;60406;-39
2023/07/23 03:45:24;;;;;;;9.00;7.40;;;;;;;17.93;80.11;99245.92;107404;1253;72813;-38
2023/07/23 03:47:52;;;;;;;8.70;7.40;;;;;;;17.94;80.33;99245.45;107621;1253;67641;-38
2023/07/23 03:50:19;;;;;;;7.60;6.80;;;;;;;18.03;80.67;99247.06;107627;1254;72666;-39
2023/07/23 03:52:47;;;;;;;7.80;6.40;;;;;;;18.16;80.45;99254.58;107566;1256;60478;-39
2023/07/23 03:55:15;;;;;;;7.60;6.90;;;;;;;18.25;80.19;99257.04;107607;1250;60476;-39
2023/07/23 03:57:43;;;;;;;10.00;7.30;;;;;;;18.30;79.67;99261.76;107668;1250;74272;-39
2023/07/23 04:00:11;;;;;;;8.40;6.80;;;;;;;18.27;79.46;99262.17;107591;1250;66339;-39
2023/07/23 04:02:39;;;;;;;8.20;7.40;;;;;;;18.28;79.48;99261.38;107556;1253;71374;-39
2023/07/23 04:05:07;;;;;;;8.70;7.70;;;;;;;18.28;79.13;99261.63;107678;1250;60492;-39
2023/07/23 04:07:35;;;;;;;11.70;9.80;;;;;;;18.22;79.33;99258.95;107552;1250;200073;-39
2023/07/23 04:11:28;;;;;;;9.60;8.70;;;;;;;18.17;79.99;99263.80;104040;1292;600946;-38
2023/07/23 04:13:56;;;;;;;9.40;8.40;;;;;;;18.12;79.90;99264.56;107017;1258;60484;-38
2023/07/23 04:16:23;;;;;;;9.40;8.40;;;;;;;18.12;80.12;99262.85;106918;1260;59910;-38
2023/07/23 04:18:51;;;;;;;11.00;8.40;;;;;;;18.15;80.45;99262.11;106920;1260;71398;-38
2023/07/23 04:21:19;;;;;;;8.00;7.10;;;;;;;18.19;80.74;99271.86;106951;1260;67583;-38
2023/07/23 04:23:50;;;;;;;7.80;7.00;;;;;;;18.19;80.90;99269.83;107001;1260;71387;-38
2023/07/23 04:26:18;;;;;;;10.20;6.60;;;;;;;18.26;80.80;99269.25;107054;1257;183643;-38
2023/07/23 04:28:45;;;;;;;7.30;6.50;;;;;;;18.37;80.57;99267.61;107060;1257;59196;-38
2023/07/23 04:31:13;;;;;;;8.40;7.10;;;;;;;18.47;80.09;99267.15;107239;1257;72205;-38
2023/07/23 04:33:40;;;;;;;7.60;6.50;;;;;;;18.55;79.95;99266.58;107047;1262;69266;-38
2023/07/23 04:36:08;;;;;;;7.20;6.00;;;;;;;18.61;79.81;99268.30;107070;1258;72679;-38
2023/07/23 04:38:36;;;;;;;6.50;5.70;;;;;;;18.71;79.68;99262.66;107151;1257;61749;-38
2023/07/23 04:41:04;;;;;;;6.90;6.20;;;;;;;18.81;79.09;99264.47;107289;1257;59477;-38
2023/07/23 04:43:32;;;;;;;7.90;6.90;;;;;;;18.82;78.36;99262.40;107164;1257;71828;-38
2023/07/23 04:46:00;;;;;;;7.30;6.60;;;;;;;18.74;77.93;99266.93;107260;1258;66914;-38
2023/07/23 04:48:27;;;;;;;6.70;6.00;;;;;;;18.61;78.18;99264.38;107241;1257;72695;-38
2023/07/23 04:51:00;;;;;;;5.90;5.40;;;;;;;18.57;78.37;99265.86;107120;1257;60400;-38
2023/07/23 04:53:28;;;;;;;6.00;5.50;;;;;;;18.56;78.28;99262.41;107112;1257;60142;-38
2023/07/23 04:55:57;;;;;;;6.70;6.00;;;;;;;18.55;78.57;99254.34;107073;1256;73162;-38
2023/07/23 04:58:25;;;;;;;7.70;7.00;;;;;;;18.57;78.86;99252.20;107137;1257;67529;-38
2023/07/23 05:00:53;;;;;;;7.20;6.10;;;;;;;18.59;79.23;99256.02;107259;1257;72703;-38
2023/07/23 05:03:21;;;;;;;7.80;6.30;;;;;;;18.64;78.93;99260.64;107144;1257;60551;-38
2023/07/23 05:05:52;;;;;;;7.80;6.00;;;;;;;18.63;78.06;99266.86;107092;1256;60055;-38
2023/07/23 05:08:19;;;;;;;7.40;6.50;;;;;;;18.61;78.30;99267.20;107191;1256;72099;-38
2023/07/23 05:10:47;;;;;;;7.90;6.80;;;;;;;18.62;78.48;99270.25;107166;1257;66599;-38
2023/07/23 05:13:15;;;;;;;10.60;6.70;;;;;;;18.64;78.91;99262.60;107070;1258;72640;-38
2023/07/23 05:15:42;;;;;;;7.30;6.60;;;;;;;18.69;78.58;99261.60;107165;1257;60406;-39
2023/07/23 05:18:10;;;;;;;7.90;7.20;;;;;;;18.74;78.85;99260.58;107230;1257;58796;-38
2023/07/23 05:20:37;;;;;;;9.30;7.20;;;;;;;18.78;78.37;99259.48;107228;1257;72864;-38
2023/07/23 05:23:05;;;;;;;10.00;8.00;;;;;;;18.82;78.49;99260.05;107213;1257;67613;-38
2023/07/23 05:25:33;;;;;;;7.00;6.40;;;;;;;18.82;78.14;99259.20;107084;1257;71147;-38
2023/07/23 05:28:00;;;;;;;7.70;7.00;;;;;;;18.84;78.00;99259.00;107066;1257;61759;-38
2023/07/23 05:30:28;;;;;;;7.40;6.70;;;;;;;18.90;77.77;99259.69;107056;1262;60064;-38
2023/07/23 05:32:56;;;;;;;8.70;7.80;;;;;;;18.99;78.26;99256.55;107175;1257;73125;-38
2023/07/23 05:35:23;;;;;;;8.30;7.50;;;;;;;19.12;78.12;99259.94;107274;1257;68047;-38
2023/07/23 05:37:51;;;;;;;9.00;7.10;;;;;;;19.19;77.81;99266.18;107197;1258;73159;-38
2023/07/23 05:40:18;;;;;;;6.70;6.00;;;;;;;19.22;77.13;99268.09;107046;1257;61662;-38
2023/07/23 05:42:46;;;;;;;8.50;6.70;;;;;;;19.24;76.59;99263.42;107122;1257;59985;-38
2023/07/23 05:45:13;;;;;;;8.00;7.20;;;;;;;19.24;76.81;99260.67;107154;1257;71896;-38
2023/07/23 05:47:41;;;;;;;7.30;6.60;;;;;;;19.22;77.05;99262.44;107151;1258;67700;-38
2023/07/23 05:50:10;;;;;;;6.80;6.20;;;;;;;19.20;77.45;99262.39;107037;1257;72923;-38
2023/07/23 05:52:37;;;;;;;7.70;7.00;;;;;;;19.21;77.79;99264.83;107017;1257;61866;-38
2023/07/23 05:55:06;;;;;;;7.20;6.50;;;;;;;19.24;77.59;99267.13;107045;1262;59856;-38
2023/07/23 05:57:34;;;;;;;7.20;6.50;;;;;;;19.28;77.06;99269.08;107225;1257;73031;-38
2023/07/23 06:00:01;;;;;;;6.60;6.00;;;;;;;19.26;76.54;99274.30;107141;1257;66275;-38
2023/07/23 06:02:37;;;;;;;5.80;5.30;;;;;;;19.25;77.13;99275.11;107146;1257;71475;-38
2023/07/23 06:05:05;;;;;;;6.20;5.20;;;;;;;19.32;77.29;99273.10;107013;1261;60464;-39
2023/07/23 06:07:33;;;;;;;6.20;5.60;;;;;;;19.42;77.26;99268.85;107073;1257;59222;-39
2023/07/23 06:10:00;;;;;;;6.40;4.80;;;;;;;19.46;77.10;99264.79;107013;1257;73006;-39
2023/07/23 06:12:28;;;;;;;6.20;5.30;;;;;;;19.45;76.88;99272.89;107118;1257;67616;-39
2023/07/23 06:14:55;;;;;;;5.70;5.10;;;;;;;19.43;76.58;99278.48;107135;1257;72769;-39
2023/07/23 06:17:23;;;;;;;5.80;4.80;;;;;;;19.44;76.52;99276.34;107080;1260;60425;-39
2023/07/23 06:19:51;;;;;;;4.80;4.40;;;;;;;19.48;76.68;99273.55;107206;1260;60054;-39
2023/07/23 06:22:18;;;;;;;5.50;5.00;;;;;;;19.50;76.74;99275.08;107163;1257;72107;-39
2023/07/23 06:24:46;;;;;;;5.90;5.30;;;;;;;19.54;76.34;99276.27;107154;1257;66656;-39
2023/07/23 06:27:14;;;;;;;5.50;4.90;;;;;;;19.55;76.37;99273.24;107113;1257;72631;-39
2023/07/23 06:29:41;;;;;;;6.60;4.70;;;;;;;19.66;76.51;99274.94;107100;1260;60462;-39
2023/07/23 06:32:10;;;;;;;4.90;4.30;;;;;;;19.79;76.81;99271.77;107201;1257;60023;-39
2023/07/23 06:34:37;;;;;;;7.30;4.90;;;;;;;19.89;75.96;99273.92;107199;1257;72153;-39
2023/07/23 06:37:05;;;;;;;5.50;5.00;;;;;;;19.91;75.17;99273.95;107155;1257;67941;-39
2023/07/23 06:39:33;;;;;;;5.00;4.50;;;;;;;19.92;74.69;99272.05;107308;1257;72658;-39
2023/07/23 06:42:01;;;;;;;5.30;4.80;;;;;;;19.96;74.53;99274.02;107270;1257;62053;-39
2023/07/23 06:44:28;;;;;;;5.90;5.10;;;;;;;20.05;74.48;99275.48;107108;1257;60067;-39
2023/07/23 06:46:57;;;;;;;6.20;5.20;;;;;;;20.17;74.22;99277.75;107194;1260;73020;-39
2023/07/23 06:49:28;;;;;;;7.10;5.90;;;;;;;20.19;74.00;99275.58;107183;1258;67673;-39
2023/07/23 06:51:56;;;;;;;7.50;5.60;;;;;;;20.16;73.83;99279.73;107179;1257;72678;-39
2023/07/23 06:54:24;;;;;;;5.60;5.10;;;;;;;20.10;73.81;99281.67;107119;1258;61626;-39
2023/07/23 06:56:54;;;;;;;7.80;4.90;;;;;;;20.06;73.47;99275.92;107110;1257;60008;-39
2023/07/23 06:59:22;;;;;;;6.10;5.50;;;;;;;20.07;73.82;99276.55;107143;1257;71807;-39
2023/07/23 07:01:50;;;;;;;7.20;5.10;;;;;;;20.06;73.29;99280.10;107198;1257;67563;-39
2023/07/23 07:04:19;;;;;;;6.70;5.40;;;;;;;20.07;74.09;99275.59;107037;1257;72688;-39
2023/07/23 07:06:47;;;;;;;6.30;4.80;;;;;;;20.12;73.22;99274.55;107064;1257;61675;-38
2023/07/23 07:09:15;;;;;;;7.70;4.40;;;;;;;20.21;73.70;99273.41;107080;1257;60138;-39
2023/07/23 07:11:45;;;;;;;6.00;4.90;;;;;;;20.34;73.51;99275.84;107185;1261;72995;-46
2023/07/23 07:14:13;;;;;;;5.80;5.20;;;;;;;20.42;71.97;99276.52;106988;1257;67906;-38
2023/07/23 07:16:40;;;;;;;5.30;4.70;;;;;;;20.47;72.28;99273.65;106922;1261;72783;-38
2023/07/23 07:19:08;;;;;;;5.60;5.10;;;;;;;20.55;72.43;99274.48;106999;1257;61713;-37
2023/07/23 07:21:35;;;;;;;4.70;4.30;;;;;;;20.62;72.41;99270.63;106938;1256;60069;-38
2023/07/23 07:24:03;;;;;;;4.40;4.00;;;;;;;20.75;72.07;99277.02;107112;1257;72774;-38
2023/07/23 07:26:31;;;;;;;5.30;4.70;;;;;;;20.82;71.67;99274.48;107044;1257;68198;-41
2023/07/23 07:29:03;;;;;;;4.50;4.10;;;;;;;20.89;70.95;99276.06;107242;1257;71427;-38
2023/07/23 07:31:34;;;;;;;6.90;4.00;;;;;;;20.95;70.65;99274.41;107160;1260;59669;-39
2023/07/23 07:34:03;;;;;;;4.50;4.00;;;;;;;21.01;69.01;99273.70;106961;1257;59168;-39
2023/07/23 07:36:31;;;;;;;6.00;4.40;;;;;;;21.10;68.83;99275.69;107145;1257;73133;-39
2023/07/23 07:38:58;;;;;;;5.10;4.00;;;;;;;21.21;68.74;99280.63;107125;1261;67572;-39
2023/07/23 07:41:26;;;;;;;4.90;4.30;;;;;;;21.34;68.17;99278.20;107183;1257;72516;-39
2023/07/23 07:43:54;;;;;;;5.50;3.90;;;;;;;21.41;67.16;99280.59;107209;1257;59512;-39
2023/07/23 07:46:23;;;;;;;4.40;4.00;;;;;;;21.46;67.34;99278.81;107225;1257;60190;-39
2023/07/23 07:48:50;;;;;;;4.40;4.00;;;;;;;21.56;67.04;99278.45;107122;1257;73039;-39
2023/07/23 07:51:18;;;;;;;4.30;3.90;;;;;;;21.67;66.44;99271.45;107066;1258;68092;-39
2023/07/23 07:53:45;;;;;;;4.70;4.10;;;;;;;21.78;66.83;99273.13;107029;1257;72762;-39
2023/07/23 07:56:15;;;;;;;4.10;3.80;;;;;;;21.88;65.74;99276.63;107171;1257;60044;-39
2023/07/23 07:58:44;;;;;;;;;;;;;;;21.98;66.44;99272.25;107217;1256;59608;-39
2023/07/23 08:01:12;;;;;;;4.50;4.10;;;;;;;22.10;66.51;99281.07;107189;1257;73012;-39
2023/07/23 08:03:40;;;;;;;4.60;4.10;;;;;;;22.18;65.04;99281.08;107199;1257;66451;-39
2023/07/23 08:06:08;;;;;;;4.70;3.80;;;;;;;22.28;64.36;99282.19;107223;1257;72670;-39
2023/07/23 08:08:37;;;;;;;4.10;3.50;;;;;;;22.41;63.82;99284.16;107166;1262;59703;-39
2023/07/23 08:11:07;;;;;;;4.30;3.80;;;;;;;22.50;63.17;99281.61;107170;1257;60014;-38
2023/07/23 08:13:36;;;;;;;5.40;4.20;;;;;;;22.58;63.20;99281.21;107198;1261;74205;-39
2023/07/23 08:16:05;;;;;;;4.40;4.00;;;;;;;22.65;63.05;99285.41;107280;1262;67976;-40
2023/07/23 08:18:33;;;;;;;4.50;4.10;;;;;;;22.71;62.86;99285.84;107229;1257;71574;-39
2023/07/23 08:21:00;;;;;;;4.00;3.50;;;;;;;22.75;61.83;99288.17;107181;1257;60514;-39
2023/07/23 08:23:29;;;;;;;6.50;4.20;;;;;;;22.79;62.51;99285.45;107173;1256;60383;-38
2023/07/23 08:25:57;;;;;;;4.70;4.10;;;;;;;22.88;62.46;99288.10;107131;1256;73882;-39
2023/07/23 08:28:29;;;;;;;4.20;3.70;;;;;;;22.99;63.04;99289.87;107150;1257;68085;-39
2023/07/23 08:30:57;;;;;;;4.30;3.90;;;;;;;23.10;62.00;99294.77;107181;1257;73048;-40
2023/07/23 08:33:27;;;;;;;4.60;3.80;;;;;;;23.18;61.16;99291.12;107274;1257;60529;-39
2023/07/23 08:35:55;;;;;;;;;;;;;;;23.26;61.22;99291.88;107138;1261;61220;-39
2023/07/23 08:38:24;;;;;;;4.40;3.60;;;;;;;23.31;60.48;99295.90;107221;1257;71905;-39
2023/07/23 08:41:02;;;;;;;4.20;3.60;;;;;;;23.36;59.90;99297.63;107172;1257;67592;-39
2023/07/23 08:43:58;;;;;;;3.90;3.50;;;;;;;23.41;58.04;99297.77;107210;1257;71410;-39
2023/07/23 08:46:27;;;;;;;8.20;4.10;;;;;;;23.37;58.51;99297.11;107183;1257;60695;-39
2023/07/23 08:48:54;;;;;;;5.00;3.80;;;;;;;23.38;59.73;99296.38;107214;1257;60619;-39
2023/07/23 08:51:24;;;;;;;4.30;3.50;;;;;;;23.48;59.94;99299.72;107132;1257;73862;-39
2023/07/23 08:53:52;;;;;;;4.60;3.60;;;;;;;23.56;58.00;99293.83;107257;1257;66458;-39
2023/07/23 08:56:20;;;;;;;5.50;3.20;;;;;;;23.57;56.74;99295.44;107286;1257;72698;-39
2023/07/23 08:58:47;;;;;;;5.20;3.40;;;;;;;23.61;58.03;99299.71;107205;1257;60424;-39
2023/07/23 09:01:15;;;;;;;3.60;3.30;;;;;;;23.73;57.64;99301.68;107142;1257;60431;-39
2023/07/23 09:03:43;;;;;;;4.40;3.40;;;;;;;23.84;55.65;99307.05;107213;1257;73884;-39
2023/07/23 09:06:11;;;;;;;4.70;3.00;;;;;;;23.93;56.32;99304.36;107251;1257;67576;-39
2023/07/23 09:08:38;;;;;;;3.80;3.30;;;;;;;24.01;56.72;99301.05;107220;1257;72495;-39
2023/07/23 09:11:09;;;;;;;5.00;3.00;;;;;;;24.12;55.40;99297.71;107237;1257;60392;-39
2023/07/23 09:13:37;;;;;;;6.70;3.50;;;;;;;24.25;55.51;99295.66;107269;1257;60402;-39
2023/07/23 09:16:05;;;;;;;4.10;3.30;;;;;;;24.35;54.41;99296.79;107210;1257;72839;-39
2023/07/23 09:18:40;;;;;;;4.00;2.90;;;;;;;24.41;52.37;99297.92;107234;1257;67722;-39
2023/07/23 09:21:09;;;;;;;3.80;3.10;;;;;;;24.44;52.66;99301.69;107210;1263;70800;-39
2023/07/23 09:23:37;;;;;;;3.60;2.90;;;;;;;24.44;51.64;99297.55;107193;1258;61118;-39
2023/07/23 09:26:08;;;;;;;4.00;3.00;;;;;;;24.45;51.55;99301.22;107204;1262;59179;-39
2023/07/23 09:28:36;;;;;;;4.20;3.10;;;;;;;24.46;50.85;99305.80;107296;1257;72653;-39
2023/07/23 09:31:04;;;;;;;3.10;2.80;;;;;;;24.45;51.48;99304.88;107184;1257;68361;-39
2023/07/23 09:33:35;;;;;;;3.40;2.80;;;;;;;24.48;51.75;99306.80;107168;1257;72709;-39
2023/07/23 09:36:04;;;;;;;3.90;3.20;;;;;;;24.54;52.24;99302.64;107184;1257;60160;-39
2023/07/23 09:38:33;;;;;;;5.80;3.00;;;;;;;24.63;51.60;99302.59;107254;1260;60306;-40
2023/07/23 09:41:01;;;;;;;;;;;;;;;24.66;50.58;99297.23;107071;1260;73865;-39
2023/07/23 09:43:28;;;;;;;4.80;2.80;;;;;;;24.58;50.04;99299.70;107171;1262;66278;-39
2023/07/23 09:45:56;;;;;;;2.80;2.50;;;;;;;24.53;50.05;99298.17;107190;1257;72683;-39
2023/07/23 09:48:23;;;;;;;3.80;2.40;;;;;;;24.54;50.17;99300.90;107004;1259;60540;-39
2023/07/23 09:50:56;;;;;;;3.80;3.10;;;;;;;24.54;49.66;99303.11;107180;1257;60325;-40
2023/07/23 09:53:23;;;;;;;5.00;2.70;;;;;;;24.57;49.56;99303.45;107192;1257;73840;-39
2023/07/23 09:55:51;;;;;;;2.70;2.40;;;;;;;24.63;48.62;99301.70;107220;1257;68165;-39
2023/07/23 09:58:18;;;;;;;3.60;2.30;;;;;;;24.73;47.64;99303.48;107069;1258;71452;-39
2023/07/23 10:00:46;;;;;;;4.70;2.30;;;;;;;24.83;46.06;99304.11;107143;1258;60434;-39
2023/07/23 10:03:17;;;;;;;2.90;2.30;;;;;;;24.91;45.05;99302.31;107005;1257;60424;-39
2023/07/23 10:05:44;;;;;;;2.60;2.00;;;;;;;24.97;45.38;99306.49;107218;1257;73918;-39
2023/07/23 10:08:12;;;;;;;2.70;2.40;;;;;;;25.04;44.77;99297.33;107049;1257;67611;-39
2023/07/23 10:10:39;;;;;;;3.10;2.20;;;;;;;25.10;44.82;99302.70;107043;1257;71440;-39
2023/07/23 10:13:07;;;;;;;3.40;2.50;;;;;;;25.16;44.52;99299.84;107210;1258;60434;-39
2023/07/23 10:15:35;;;;;;;2.50;2.30;;;;;;;25.22;43.76;99302.36;107050;1263;60427;-40
2023/07/23 10:18:02;;;;;;;4.20;2.60;;;;;;;25.27;42.84;99303.98;107235;1257;73893;-40
2023/07/23 10:20:31;;;;;;;3.70;2.60;;;;;;;25.33;43.81;99304.50;107250;1257;67222;-40
2023/07/23 10:22:58;;;;;;;3.20;2.60;;;;;;;25.44;44.47;99300.08;107237;1257;72695;-40
2023/07/23 10:25:34;;;;;;;4.70;2.50;;;;;;;25.59;42.63;99299.00;107190;1257;60515;-39
2023/07/23 10:28:09;;;;;;;3.20;2.40;;;;;;;25.69;41.62;99296.99;107211;1257;59733;-40
2023/07/23 10:30:37;;;;;;;3.10;2.40;;;;;;;25.70;41.20;99297.88;107220;1262;74407;-40
2023/07/23 10:33:11;;;;;;;3.20;2.70;;;;;;;25.74;41.06;99293.59;107238;1257;67633;-40
2023/07/23 10:35:49;;;;;;;6.30;2.70;;;;;;;25.81;40.99;99297.88;107203;1259;72635;-40
2023/07/23 10:38:27;;;;;;;4.00;2.40;;;;;;;25.87;40.76;99300.38;107143;1257;60482;-39
2023/07/23 10:40:56;;;;;;;4.50;2.30;;;;;;;25.94;41.51;99299.91;107174;1260;60299;-40
2023/07/23 10:43:23;;;;;;;6.00;2.80;;;;;;;26.08;41.19;99301.52;107234;1260;73896;-40
2023/07/23 10:46:02;;;;;;;3.80;2.40;;;;;;;26.15;40.17;99301.16;107194;1257;67572;-40
2023/07/23 10:48:49;;;;;;;2.80;2.40;;;;;;;26.14;40.09;99301.84;107109;1260;71209;-39
2023/07/23 10:51:21;;;;;;;2.70;2.30;;;;;;;25.99;40.80;99307.00;107245;1257;60352;-39
2023/07/23 10:53:54;;;;;;;3.50;2.30;;;;;;;25.74;40.85;99310.16;107262;1257;60399;-39
2023/07/23 10:56:26;;;;;;;4.70;2.70;;;;;;;25.45;41.75;99310.36;107138;1257;72566;-39
2023/07/23 10:58:56;;;;;;;3.10;2.20;;;;;;;25.19;42.22;99308.45;107193;1257;66701;-39
2023/07/23 11:01:24;;;;;;;4.10;2.30;;;;;;;24.97;42.86;99314.41;107155;1257;71991;-40
2023/07/23 11:03:53;;;;;;;3.50;2.40;;;;;;;24.80;44.15;99319.27;107056;1260;60549;-40
2023/07/23 11:06:31;;;;;;;3.70;2.60;;;;;;;24.69;44.08;99316.94;107204;1257;60061;-39
2023/07/23 11:09:10;;;;;;;5.90;2.50;;;;;;;24.63;44.28;99314.39;107201;1257;73831;-39
2023/07/23 11:11:39;;;;;;;3.60;2.40;;;;;;;24.68;43.42;99315.35;107244;1262;68515;-39
2023/07/23 11:14:17;;;;;;;3.10;2.40;;;;;;;24.83;43.19;99310.08;107179;1257;71466;-40
2023/07/23 11:16:49;;;;;;;2.60;2.40;;;;;;;25.05;42.44;99305.53;107186;1262;59632;-40
2023/07/23 11:19:18;;;;;;;3.60;2.40;;;;;;;25.33;41.86;99307.55;107150;1257;60418;-39
2023/07/23 11:21:54;;;;;;;4.20;2.20;;;;;;;25.66;41.19;99303.71;107242;1257;74335;-39
2023/07/23 11:24:22;;;;;;;3.20;2.30;;;;;;;25.96;40.91;99297.98;107235;1257;67563;-39
2023/07/23 11:26:51;;;;;;;2.80;2.40;;;;;;;26.15;41.38;99297.30;107186;1257;72702;-40
2023/07/23 11:29:18;;;;;;;2.60;2.30;;;;;;;26.25;40.57;99304.94;107274;1257;60424;-39
2023/07/23 11:31:46;;;;;;;2.60;2.20;;;;;;;26.25;39.77;99302.71;106999;1260;61419;-40